Time;durP1;ratioP1;P1;durP2;ratioP2;P2;SDS_P1;SDS_P2;PMS_P1;PMS_P2;Temp;Humidity;BMP_temperature;BMP_pressure;BME280_temperature;BME280_humidity;BME280_pressure;Samples;Min_cycle;Max_cycle;Signal;HPM_P1;HPM_P2
2022/06/17 00:01:00;;;;;;;0.90;0.90;;;17.00;62.20;;;;;;5011759;28;20042;-80
2022/06/17 00:03:28;;;;;;;1.48;1.08;;;17.00;62.30;;;;;;4993847;28;20042;-80
2022/06/17 00:05:56;;;;;;;0.77;0.70;;;16.90;62.40;;;;;;4979697;28;20061;-81
2022/06/17 00:08:28;;;;;;;1.30;0.90;;;16.90;62.50;;;;;;4992006;28;21303;-80
2022/06/17 00:10:55;;;;;;;0.77;0.77;;;16.90;62.60;;;;;;4977872;28;20109;-81
2022/06/17 00:13:21;;;;;;;0.73;0.70;;;16.80;62.60;;;;;;4993273;28;20482;-81
2022/06/17 00:15:47;;;;;;;1.23;1.00;;;16.90;62.80;;;;;;4960158;28;20121;-81
2022/06/17 00:18:14;;;;;;;0.93;0.77;;;16.90;62.90;;;;;;5011911;28;20030;-81
2022/06/17 00:20:41;;;;;;;1.27;1.00;;;16.80;62.90;;;;;;5011807;28;20494;-81
2022/06/17 00:23:20;;;;;;;1.10;1.00;;;16.70;62.90;;;;;;4993829;28;20044;-80
2022/06/17 00:25:47;;;;;;;1.20;1.00;;;16.80;63.20;;;;;;5011337;28;20084;-81
2022/06/17 00:28:17;;;;;;;0.85;0.85;;;16.80;63.20;;;;;;4978397;28;20089;-81
2022/06/17 00:30:45;;;;;;;0.90;0.80;;;16.80;63.30;;;;;;4995455;28;20092;-81
2022/06/17 00:33:10;;;;;;;1.35;1.10;;;16.80;63.20;;;;;;4997746;28;20052;-81
2022/06/17 00:35:41;;;;;;;1.05;0.90;;;16.80;63.30;;;;;;4998406;28;20401;-81
2022/06/17 00:38:14;;;;;;;1.30;0.90;;;16.80;63.40;;;;;;5016337;28;20210;-81
2022/06/17 00:40:41;;;;;;;1.00;0.90;;;16.70;63.40;;;;;;5016436;28;20041;-81
2022/06/17 00:43:17;;;;;;;2.15;1.02;;;16.70;63.50;;;;;;4982490;28;20061;-81
2022/06/17 00:45:49;;;;;;;1.40;1.10;;;16.80;63.60;;;;;;5014343;28;20046;-81
2022/06/17 00:48:37;;;;;;;1.40;1.10;;;16.90;63.70;;;;;;4998341;28;20049;-81
2022/06/17 00:51:13;;;;;;;1.00;0.90;;;16.80;63.80;;;;;;4981182;28;20078;-81
2022/06/17 00:53:59;;;;;;;0.88;0.82;;;16.70;63.70;;;;;;4995704;28;20038;-81
2022/06/17 00:56:31;;;;;;;0.80;0.80;;;16.70;63.70;;;;;;4976460;28;20058;-81
2022/06/17 00:59:15;;;;;;;0.95;0.85;;;16.80;63.80;;;;;;4992723;28;20045;-81
2022/06/17 01:01:50;;;;;;;0.70;0.70;;;16.80;63.80;;;;;;4983161;28;20045;-80
2022/06/17 01:04:18;;;;;;;0.88;0.80;;;16.90;63.80;;;;;;4998407;28;20088;-81
2022/06/17 01:06:50;;;;;;;0.70;0.70;;;16.90;63.80;;;;;;5012939;28;20057;-81
2022/06/17 01:12:11;;;;;;;0.93;0.80;;;16.90;63.80;;;;;;5012975;28;20042;-81
2022/06/17 01:14:40;;;;;;;0.55;0.55;;;16.90;63.70;;;;;;4980869;28;20041;-80
2022/06/17 01:17:07;;;;;;;0.60;0.60;;;16.90;63.70;;;;;;4982859;28;20383;-81
2022/06/17 01:19:40;;;;;;;0.60;0.60;;;17.00;63.70;;;;;;5016987;28;20517;-81
2022/06/17 01:22:22;;;;;;;0.73;0.60;;;17.00;63.80;;;;;;5015381;28;20038;-81
2022/06/17 01:24:51;;;;;;;0.50;0.50;;;17.00;63.80;;;;;;5017196;28;20520;-80
2022/06/17 01:27:20;;;;;;;0.82;0.73;;;16.90;63.70;;;;;;5017310;28;20046;-81
2022/06/17 01:29:47;;;;;;;0.70;0.70;;;17.00;63.80;;;;;;5017121;28;20117;-81
2022/06/17 01:32:14;;;;;;;0.80;0.80;;;17.00;63.80;;;;;;4999257;28;20033;-81
2022/06/17 01:34:40;;;;;;;0.75;0.60;;;17.00;63.90;;;;;;5015472;28;20104;-81
2022/06/17 01:37:08;;;;;;;0.50;0.50;;;17.00;63.90;;;;;;5016145;28;20038;-79
2022/06/17 01:39:34;;;;;;;0.60;0.60;;;17.00;64.00;;;;;;5013614;28;20054;-81
2022/06/17 01:42:00;;;;;;;0.65;0.65;;;17.00;64.00;;;;;;4979326;28;20494;-80
2022/06/17 01:44:33;;;;;;;0.98;0.88;;;17.00;64.00;;;;;;4964561;28;20381;-81
2022/06/17 01:47:04;;;;;;;0.63;0.63;;;17.00;64.10;;;;;;4982407;28;20038;-80
2022/06/17 01:49:36;;;;;;;0.93;0.70;;;17.00;64.10;;;;;;4995976;28;20505;-80
2022/06/17 01:52:08;;;;;;;0.80;0.70;;;17.00;64.10;;;;;;5010940;28;20498;-80
2022/06/17 01:54:44;;;;;;;0.60;0.60;;;17.10;64.30;;;;;;4995395;28;20108;-80
2022/06/17 01:57:12;;;;;;;0.90;0.82;;;17.00;64.30;;;;;;5012934;28;20045;-80
2022/06/17 01:59:45;;;;;;;2.05;0.85;;;17.00;64.30;;;;;;4993400;28;20498;-80
2022/06/17 02:02:13;;;;;;;1.92;0.80;;;16.90;64.30;;;;;;4994025;28;20402;-80
2022/06/17 02:04:48;;;;;;;0.80;0.80;;;16.90;64.50;;;;;;5013239;28;20046;-80
2022/06/17 02:07:28;;;;;;;0.65;0.65;;;16.90;64.60;;;;;;4994062;28;20038;-80
2022/06/17 02:09:54;;;;;;;1.00;0.90;;;16.80;64.80;;;;;;5013203;28;20042;-80
2022/06/17 02:12:21;;;;;;;0.85;0.85;;;16.80;64.90;;;;;;4978883;28;20038;-80
2022/06/17 02:14:48;;;;;;;0.95;0.88;;;16.80;65.00;;;;;;5013270;28;20049;-80
2022/06/17 02:17:14;;;;;;;0.70;0.70;;;16.70;65.00;;;;;;4976160;28;20046;-80
2022/06/17 02:19:43;;;;;;;0.88;0.80;;;16.70;65.20;;;;;;5013461;28;20038;-81
2022/06/17 02:22:15;;;;;;;1.00;0.88;;;16.60;65.30;;;;;;4994097;28;20077;-82
2022/06/17 02:24:43;;;;;;;0.77;0.77;;;16.60;65.50;;;;;;4966935;28;20073;-80
2022/06/17 02:27:12;;;;;;;1.10;1.00;;;16.60;65.60;;;;;;4964156;28;20037;-81
2022/06/17 02:29:41;;;;;;;1.20;0.95;;;16.50;65.70;;;;;;4980183;28;20030;-80
2022/06/17 02:32:08;;;;;;;1.15;0.88;;;16.50;65.80;;;;;;5018691;28;20030;-80
2022/06/17 02:34:39;;;;;;;1.08;0.82;;;16.50;65.90;;;;;;5001330;28;20042;-82
2022/06/17 02:37:10;;;;;;;1.17;1.05;;;16.50;66.00;;;;;;5001413;28;20038;-82
2022/06/17 02:39:41;;;;;;;0.90;0.90;;;16.40;66.10;;;;;;4999195;28;20060;-82
2022/06/17 02:42:20;;;;;;;1.77;1.00;;;16.40;66.10;;;;;;4999588;28;20122;-82
2022/06/17 02:44:48;;;;;;;0.98;0.95;;;16.40;66.20;;;;;;4963252;28;20050;-82
2022/06/17 02:47:14;;;;;;;0.80;0.80;;;16.40;66.20;;;;;;4999044;28;20033;-82
2022/06/17 02:49:42;;;;;;;0.80;0.80;;;16.40;66.30;;;;;;4998420;28;20060;-79
2022/06/17 02:52:16;;;;;;;0.80;0.80;;;16.50;66.50;;;;;;5016081;28;20042;-80
2022/06/17 02:54:50;;;;;;;1.13;0.90;;;16.40;66.50;;;;;;4999048;28;20034;-80
2022/06/17 02:57:23;;;;;;;2.25;1.30;;;16.30;66.50;;;;;;5016381;28;20046;-80
2022/06/17 02:59:58;;;;;;;1.17;0.82;;;16.30;66.60;;;;;;5014652;28;20491;-80
2022/06/17 03:02:29;;;;;;;2.17;0.90;;;16.30;66.70;;;;;;4980425;28;20061;-82
2022/06/17 03:04:56;;;;;;;0.80;0.80;;;16.20;66.70;;;;;;4980845;28;20054;-82
2022/06/17 03:07:25;;;;;;;0.80;0.80;;;16.20;66.80;;;;;;4977926;28;20072;-81
2022/06/17 03:09:51;;;;;;;0.82;0.80;;;16.20;66.90;;;;;;4976059;28;20042;-80
2022/06/17 03:12:21;;;;;;;1.00;0.90;;;16.20;67.00;;;;;;5011985;28;20152;-81
2022/06/17 03:14:59;;;;;;;0.80;0.80;;;16.10;67.00;;;;;;5011877;28;20124;-81
2022/06/17 03:17:25;;;;;;;0.77;0.75;;;16.10;67.10;;;;;;4994047;28;20037;-81
2022/06/17 03:19:54;;;;;;;0.90;0.80;;;16.20;67.20;;;;;;5011770;28;20026;-81
2022/06/17 03:22:20;;;;;;;1.33;1.05;;;16.00;67.20;;;;;;4976989;28;20053;-81
2022/06/17 03:25:01;;;;;;;1.02;0.73;;;16.00;67.40;;;;;;4992085;28;20053;-81
2022/06/17 03:27:43;;;;;;;1.00;0.90;;;16.00;67.50;;;;;;5011738;28;20034;-81
2022/06/17 03:30:12;;;;;;;0.68;0.68;;;15.90;67.60;;;;;;4958795;28;20125;-80
2022/06/17 03:32:42;;;;;;;1.40;1.10;;;15.90;67.60;;;;;;4994850;28;20046;-82
2022/06/17 03:35:18;;;;;;;1.02;0.93;;;16.00;67.70;;;;;;5015600;28;20041;-79
2022/06/17 03:37:59;;;;;;;0.80;0.80;;;15.90;67.70;;;;;;5015435;28;20045;-82
2022/06/17 03:40:40;;;;;;;1.15;0.98;;;15.90;67.70;;;;;;4995828;28;20240;-82
2022/06/17 03:43:16;;;;;;;1.10;1.00;;;16.00;67.80;;;;;;5015092;28;20030;-82
2022/06/17 03:45:55;;;;;;;1.15;1.00;;;15.90;67.70;;;;;;4994785;28;20042;-82
2022/06/17 03:48:36;;;;;;;0.88;0.88;;;15.90;67.70;;;;;;4978680;28;20038;-82
2022/06/17 03:51:03;;;;;;;0.80;0.80;;;16.00;67.70;;;;;;4962514;28;20034;-83
2022/06/17 03:53:32;;;;;;;0.90;0.73;;;16.00;67.70;;;;;;4962628;28;20445;-80
2022/06/17 03:56:05;;;;;;;0.80;0.80;;;16.00;67.70;;;;;;4979210;28;20105;-82
2022/06/17 03:58:32;;;;;;;1.10;1.00;;;16.00;67.70;;;;;;5014420;28;20101;-81
2022/06/17 04:01:10;;;;;;;1.08;0.93;;;16.00;67.70;;;;;;5014258;28;20042;-81
2022/06/17 04:03:40;;;;;;;0.68;0.68;;;16.10;68.40;;;;;;4984508;28;20038;-81
2022/06/17 04:06:12;;;;;;;1.08;0.80;;;16.20;67.60;;;;;;4984306;28;20367;-81
2022/06/17 04:08:58;;;;;;;0.70;0.70;;;16.20;67.50;;;;;;4998465;28;20078;-82
2022/06/17 04:11:29;;;;;;;1.00;0.90;;;16.30;67.50;;;;;;5000098;28;20044;-82
2022/06/17 04:13:57;;;;;;;1.48;0.98;;;16.40;67.40;;;;;;5000337;28;20096;-82
2022/06/17 04:16:34;;;;;;;0.90;0.80;;;16.40;67.20;;;;;;5000261;28;20046;-82
2022/06/17 04:19:11;;;;;;;1.00;0.90;;;16.50;67.30;;;;;;5002451;28;20042;-79
2022/06/17 04:21:37;;;;;;;1.08;0.80;;;16.50;67.30;;;;;;5017408;28;20453;-82
2022/06/17 04:24:06;;;;;;;0.60;0.60;;;16.50;67.20;;;;;;5000611;28;20034;-82
2022/06/17 04:26:36;;;;;;;0.70;0.68;;;16.60;67.20;;;;;;4997449;28;20034;-81
2022/06/17 04:29:14;;;;;;;1.58;0.90;;;16.60;67.10;;;;;;4998964;28;20030;-81
2022/06/17 04:31:42;;;;;;;0.80;0.80;;;16.70;67.10;;;;;;4965168;28;20111;-81
2022/06/17 04:34:41;;;;;;;0.77;0.70;;;16.80;67.10;;;;;;4979914;28;20081;-81
2022/06/17 04:37:19;;;;;;;0.85;0.85;;;16.70;67.00;;;;;;4924183;28;20035;-79
2022/06/17 04:39:53;;;;;;;0.70;0.65;;;16.80;67.00;;;;;;4954090;28;20047;-82
2022/06/17 04:42:38;;;;;;;0.75;0.70;;;16.80;67.00;;;;;;4938205;28;20055;-81
2022/06/17 04:45:05;;;;;;;0.40;0.40;;;16.90;67.00;;;;;;4938285;28;20102;-81
2022/06/17 04:47:32;;;;;;;0.70;0.60;;;16.90;66.90;;;;;;4922007;28;20079;-81
2022/06/17 04:50:03;;;;;;;0.70;0.70;;;17.00;66.90;;;;;;4938428;28;20075;-81
2022/06/17 04:52:34;;;;;;;0.80;0.80;;;17.00;67.00;;;;;;4937849;28;20042;-81
2022/06/17 04:55:02;;;;;;;0.65;0.65;;;17.00;66.90;;;;;;4954097;28;20043;-82
2022/06/17 04:57:29;;;;;;;0.60;0.60;;;17.00;66.90;;;;;;4937546;28;20141;-82
2022/06/17 04:59:58;;;;;;;0.63;0.63;;;17.10;66.90;;;;;;4937489;28;20035;-80
2022/06/17 05:02:28;;;;;;;0.65;0.65;;;17.20;67.00;;;;;;4953861;28;20504;-82
2022/06/17 05:04:58;;;;;;;0.60;0.60;;;17.20;67.00;;;;;;4921966;28;20199;-82
2022/06/17 05:07:27;;;;;;;0.75;0.65;;;17.20;67.00;;;;;;4961032;28;20504;-82
2022/06/17 05:09:59;;;;;;;0.68;0.60;;;17.30;67.10;;;;;;5012596;28;20049;-82
2022/06/17 05:12:32;;;;;;;0.82;0.70;;;17.20;67.00;;;;;;4995645;28;20042;-82
2022/06/17 05:15:03;;;;;;;1.02;0.90;;;17.30;67.10;;;;;;5014583;28;20062;-80
2022/06/17 05:17:28;;;;;;;;;;;17.30;67.10;;;;;;5017094;28;20038;-83
2022/06/17 05:19:54;;;;;;;0.50;0.50;;;17.30;67.00;;;;;;5015924;28;19920;-83
2022/06/17 05:22:27;;;;;;;0.80;0.75;;;17.30;66.90;;;;;;4982107;28;20034;-82
2022/06/17 05:24:54;;;;;;;1.25;0.80;;;17.40;66.80;;;;;;4999068;28;20087;-83
2022/06/17 05:27:19;;;;;;;0.80;0.80;;;17.50;66.70;;;;;;5016954;28;20030;-83
2022/06/17 05:29:45;;;;;;;0.63;0.63;;;17.60;66.60;;;;;;4996790;28;20037;-83
2022/06/17 05:32:16;;;;;;;1.48;0.90;;;17.60;66.50;;;;;;4964559;28;20056;-80
2022/06/17 05:34:41;;;;;;;0.52;0.52;;;17.70;66.50;;;;;;4997689;28;20211;-83
2022/06/17 05:37:08;;;;;;;0.70;0.70;;;17.80;66.40;;;;;;4994934;28;20030;-80
2022/06/17 05:39:34;;;;;;;0.88;0.82;;;17.90;66.40;;;;;;4979354;28;20437;-83
2022/06/17 05:41:59;;;;;;;0.90;0.90;;;17.80;66.40;;;;;;4995210;28;20050;-83
2022/06/17 05:44:25;;;;;;;1.20;1.00;;;17.90;66.40;;;;;;4996261;28;20066;-80
2022/06/17 05:46:51;;;;;;;1.10;1.00;;;18.00;66.30;;;;;;4997358;28;20458;-80
2022/06/17 05:49:17;;;;;;;0.95;0.70;;;18.10;66.10;;;;;;4979599;28;20399;-80
2022/06/17 05:51:42;;;;;;;0.85;0.70;;;18.30;65.90;;;;;;4995141;28;20103;-80
2022/06/17 05:54:08;;;;;;;0.80;0.80;;;18.50;65.60;;;;;;5011984;28;20432;-83
2022/06/17 05:56:34;;;;;;;0.82;0.60;;;18.60;65.30;;;;;;4997381;28;20553;-83
2022/06/17 05:59:00;;;;;;;0.80;0.80;;;18.80;65.00;;;;;;4986396;28;20120;-81
2022/06/17 06:01:25;;;;;;;1.10;1.00;;;19.00;64.60;;;;;;4997420;28;20120;-80
2022/06/17 06:03:51;;;;;;;0.80;0.80;;;19.00;64.50;;;;;;5000015;28;20029;-81
2022/06/17 06:06:17;;;;;;;1.35;0.90;;;19.20;64.50;;;;;;4998975;28;20429;-78
2022/06/17 06:08:43;;;;;;;0.75;0.75;;;19.30;64.40;;;;;;4995435;28;20083;-78
2022/06/17 06:11:08;;;;;;;1.10;0.95;;;19.50;64.30;;;;;;5014347;28;20029;-81
2022/06/17 06:13:34;;;;;;;0.90;0.80;;;19.50;64.00;;;;;;4995941;28;20104;-78
2022/06/17 06:16:01;;;;;;;0.65;0.63;;;19.70;63.70;;;;;;5014623;28;20053;-80
2022/06/17 06:18:30;;;;;;;0.95;0.80;;;19.90;63.70;;;;;;5014654;28;20065;-80
2022/06/17 06:20:56;;;;;;;0.60;0.57;;;20.00;63.40;;;;;;4995511;28;20054;-80
2022/06/17 06:23:22;;;;;;;0.70;0.70;;;20.20;63.30;;;;;;4995218;28;20049;-79
2022/06/17 06:25:48;;;;;;;1.13;0.60;;;20.20;63.00;;;;;;5011488;28;20030;-78
2022/06/17 06:28:18;;;;;;;0.77;0.77;;;20.40;63.00;;;;;;4995452;28;20556;-78
2022/06/17 06:30:51;;;;;;;0.60;0.60;;;20.50;62.80;;;;;;4995661;28;20034;-78
2022/06/17 06:33:17;;;;;;;0.65;0.65;;;20.50;62.90;;;;;;5012678;28;20049;-78
2022/06/17 06:35:43;;;;;;;0.50;0.50;;;20.50;62.90;;;;;;5014140;28;20486;-78
2022/06/17 06:38:08;;;;;;;0.55;0.55;;;20.60;63.10;;;;;;4978411;28;20046;-78
2022/06/17 06:40:35;;;;;;;0.80;0.50;;;20.50;63.10;;;;;;5012470;28;20045;-78
2022/06/17 06:43:01;;;;;;;0.50;0.50;;;20.60;63.30;;;;;;4994210;28;20443;-78
2022/06/17 06:45:33;;;;;;;0.60;0.60;;;20.60;63.30;;;;;;4995035;28;20394;-78
2022/06/17 06:48:01;;;;;;;0.90;0.60;;;20.80;63.30;;;;;;5012472;28;20175;-79
2022/06/17 06:50:30;;;;;;;0.52;0.52;;;20.90;63.10;;;;;;5012444;28;20042;-78
2022/06/17 06:52:56;;;;;;;0.73;0.70;;;21.20;62.70;;;;;;5012446;28;20049;-78
2022/06/17 06:55:22;;;;;;;0.50;0.50;;;21.30;62.50;;;;;;4992683;28;20133;-78
2022/06/17 06:57:52;;;;;;;0.50;0.50;;;21.40;62.20;;;;;;4994060;28;20110;-78
2022/06/17 07:00:23;;;;;;;0.63;0.60;;;21.60;61.90;;;;;;4998164;28;20052;-82
2022/06/17 07:02:49;;;;;;;0.98;0.50;;;21.60;61.80;;;;;;4995832;28;20050;-82
2022/06/17 07:05:15;;;;;;;0.60;0.60;;;21.60;61.90;;;;;;5012561;28;20033;-82
2022/06/17 07:07:42;;;;;;;0.70;0.70;;;21.70;62.00;;;;;;4998271;28;20120;-82
2022/06/17 07:10:11;;;;;;;0.70;0.70;;;21.80;62.00;;;;;;5014520;28;20532;-82
2022/06/17 07:12:38;;;;;;;0.63;0.57;;;21.90;62.00;;;;;;4999099;28;20525;-81
2022/06/17 07:15:04;;;;;;;0.93;0.70;;;22.10;61.70;;;;;;4981155;28;20034;-82
2022/06/17 07:17:30;;;;;;;1.35;0.60;;;22.30;61.60;;;;;;5014945;28;20038;-82
2022/06/17 07:19:56;;;;;;;0.50;0.50;;;22.50;61.30;;;;;;4981616;28;20087;-85
2022/06/17 07:22:22;;;;;;;0.50;0.50;;;22.50;61.20;;;;;;5013775;28;20030;-81
2022/06/17 07:24:49;;;;;;;0.55;0.50;;;22.50;61.20;;;;;;5016830;28;20045;-82
2022/06/17 07:27:25;;;;;;;1.35;0.80;;;22.50;61.30;;;;;;4943809;28;20075;-86
2022/06/17 07:30:05;;;;;;;0.63;0.52;;;22.70;61.40;;;;;;4893669;29;20106;-88
2022/06/17 07:32:31;;;;;;;0.60;0.60;;;22.90;60.90;;;;;;4899977;29;20060;-82
2022/06/17 07:34:57;;;;;;;0.70;0.70;;;23.00;60.70;;;;;;4908377;29;20100;-82
2022/06/17 07:40:04;;;;;;;0.50;0.50;;;23.00;60.80;;;;;;4897733;29;20135;-82
2022/06/17 07:42:39;;;;;;;1.58;0.93;;;23.00;60.90;;;;;;4895901;29;20037;-81
2022/06/17 07:45:33;;;;;;;0.70;0.70;;;23.10;60.70;;;;;;4898226;29;20032;-85
2022/06/17 07:48:01;;;;;;;0.75;0.70;;;23.20;60.50;;;;;;4878611;29;20053;-85
2022/06/17 07:50:31;;;;;;;1.00;0.75;;;23.30;60.40;;;;;;4848270;29;20049;-82
2022/06/17 07:52:59;;;;;;;0.60;0.60;;;23.60;60.20;;;;;;4864214;29;20040;-84
2022/06/17 07:55:55;;;;;;;1.02;0.75;;;23.70;60.00;;;;;;4867525;29;20047;-84
2022/06/17 07:58:39;;;;;;;0.82;0.70;;;23.70;59.70;;;;;;4872494;29;20072;-83
2022/06/17 08:04:28;;;;;;;0.80;0.80;;;24.00;59.30;;;;;;4890680;29;20040;-81
2022/06/17 08:06:56;;;;;;;0.82;0.80;;;24.20;59.10;;;;;;4886566;29;20048;-80
2022/06/17 08:09:31;;;;;;;0.90;0.80;;;24.30;58.70;;;;;;4885178;29;20052;-81
2022/06/17 08:11:57;;;;;;;1.00;0.90;;;24.40;58.50;;;;;;4897406;29;20139;-82
2022/06/17 08:14:23;;;;;;;0.90;0.90;;;24.50;58.30;;;;;;4881746;29;20235;-80
2022/06/17 08:16:49;;;;;;;1.50;0.95;;;24.50;58.10;;;;;;4882921;29;20072;-82
2022/06/17 08:22:17;;;;;;;1.15;0.90;;;24.70;57.80;;;;;;4845756;29;20045;-83
2022/06/17 08:25:42;;;;;;;2.55;1.00;;;24.80;58.10;;;;;;4835030;29;20049;-85
2022/06/17 08:29:05;;;;;;;1.05;0.88;;;24.80;57.30;;;;;;4838356;29;20049;-84
2022/06/17 08:31:31;;;;;;;0.95;0.90;;;24.90;57.10;;;;;;4824093;29;20062;-84
2022/06/17 08:38:35;;;;;;;0.65;0.65;;;25.30;56.80;;;;;;4837885;29;20045;-84
2022/06/17 08:45:45;;;;;;;0.95;0.82;;;25.70;56.50;;;;;;4749855;30;20631;-84
2022/06/17 08:52:41;;;;;;;1.00;0.82;;;25.90;56.00;;;;;;4714121;30;20525;-84
2022/06/17 08:59:03;;;;;;;;;;;25.80;55.90;;;;;;4662697;30;20105;-84
2022/06/17 09:02:45;;;;;;;0.65;0.63;;;26.10;56.10;;;;;;4663294;30;19928;-84
2022/06/17 09:05:45;;;;;;;1.55;0.90;;;26.10;55.70;;;;;;4628848;30;20082;-84
2022/06/17 09:08:40;;;;;;;0.80;0.80;;;26.20;55.50;;;;;;4650068;30;20081;-84
2022/06/17 09:12:03;;;;;;;1.42;0.90;;;26.30;55.40;;;;;;4666655;30;20054;-84
2022/06/17 09:19:00;;;;;;;0.77;0.77;;;26.60;54.90;;;;;;4698238;30;20046;-84
2022/06/17 09:21:59;;;;;;;0.90;0.90;;;26.60;54.70;;;;;;4741263;29;20058;-86
2022/06/17 09:24:33;;;;;;;1.58;0.93;;;26.60;54.70;;;;;;4823659;29;20510;-87
2022/06/17 09:27:05;;;;;;;1.60;0.90;;;26.60;54.60;;;;;;4796173;29;20042;-84
2022/06/17 09:29:39;;;;;;;0.80;0.80;;;26.70;54.60;;;;;;4832493;29;20057;-82
2022/06/17 09:32:13;;;;;;;1.10;1.00;;;26.90;54.40;;;;;;4858775;29;20088;-82
2022/06/17 09:34:51;;;;;;;0.80;0.75;;;26.90;54.30;;;;;;4901080;29;20519;-82
2022/06/17 09:37:34;;;;;;;1.88;0.90;;;26.90;54.70;;;;;;4899759;29;20101;-81
2022/06/17 09:40:06;;;;;;;1.42;0.90;;;26.90;53.90;;;;;;4950754;28;20158;-82
2022/06/17 09:42:38;;;;;;;0.70;0.70;;;27.00;53.80;;;;;;4938073;28;20130;-86
2022/06/17 09:45:19;;;;;;;1.20;1.10;;;27.00;53.70;;;;;;4921477;29;20039;-86
2022/06/17 09:52:20;;;;;;;0.68;0.68;;;27.00;53.60;;;;;;4885479;29;20173;-84
2022/06/17 09:55:19;;;;;;;1.52;0.93;;;27.20;53.40;;;;;;4847524;29;20502;-88
2022/06/17 09:58:07;;;;;;;1.77;0.88;;;27.30;53.20;;;;;;4875820;29;20048;-79
2022/06/17 10:00:41;;;;;;;0.80;0.80;;;27.20;53.10;;;;;;4894471;29;20059;-79
2022/06/17 10:03:23;;;;;;;1.30;0.90;;;27.20;53.10;;;;;;4895516;29;20056;-80
2022/06/17 10:06:05;;;;;;;1.73;1.13;;;27.20;53.00;;;;;;4895613;29;20144;-80
2022/06/17 10:09:09;;;;;;;1.83;1.08;;;27.10;52.80;;;;;;4895546;29;20063;-80
2022/06/17 10:12:06;;;;;;;0.88;0.88;;;27.00;52.50;;;;;;4894700;29;20048;-80
2022/06/17 10:14:57;;;;;;;0.85;0.85;;;27.00;52.60;;;;;;4895439;29;20033;-80
2022/06/17 10:20:48;;;;;;;0.93;0.90;;;27.40;52.30;;;;;;4951687;29;20055;-81
2022/06/17 10:23:40;;;;;;;0.90;0.90;;;27.50;52.00;;;;;;4936392;29;20035;-80
2022/06/17 10:26:40;;;;;;;1.05;0.88;;;27.50;51.90;;;;;;4975677;28;20160;-81
2022/06/17 10:29:41;;;;;;;0.60;0.60;;;27.50;51.90;;;;;;5012566;28;20041;-81
2022/06/17 10:32:07;;;;;;;0.75;0.75;;;27.70;51.90;;;;;;5011249;28;20038;-81
2022/06/17 10:34:43;;;;;;;0.80;0.80;;;27.70;51.60;;;;;;5013069;28;20034;-81
2022/06/17 10:37:10;;;;;;;0.82;0.70;;;27.90;51.30;;;;;;5012847;28;20050;-81
2022/06/17 10:39:37;;;;;;;1.30;0.90;;;28.00;51.30;;;;;;5012823;28;20041;-81
2022/06/17 10:42:05;;;;;;;1.05;0.95;;;28.10;51.10;;;;;;4993841;28;20034;-81
2022/06/17 10:44:31;;;;;;;0.82;0.82;;;28.00;50.90;;;;;;4961174;28;20104;-81
2022/06/17 10:47:27;;;;;;;0.70;0.70;;;28.00;50.90;;;;;;5012468;28;20121;-80
2022/06/17 10:49:58;;;;;;;0.82;0.82;;;28.10;50.90;;;;;;5012710;28;20065;-82
2022/06/17 10:52:39;;;;;;;0.80;0.80;;;28.20;50.60;;;;;;4994707;28;20076;-80
2022/06/17 10:55:12;;;;;;;;;;;28.10;50.40;;;;;;4993514;28;20046;-80
2022/06/17 10:57:39;;;;;;;0.60;0.60;;;28.20;50.50;;;;;;5012637;28;19932;-82
2022/06/17 11:00:24;;;;;;;1.27;0.80;;;28.30;50.50;;;;;;4994956;28;20045;-81
2022/06/17 11:02:50;;;;;;;0.75;0.70;;;28.20;50.20;;;;;;5010587;28;20123;-79
2022/06/17 11:05:31;;;;;;;0.82;0.80;;;28.20;50.30;;;;;;4994522;28;20042;-80
2022/06/17 11:07:57;;;;;;;1.40;1.00;;;28.00;50.40;;;;;;5012609;28;20053;-80
2022/06/17 11:10:31;;;;;;;0.80;0.70;;;28.00;50.30;;;;;;4975799;28;20478;-80
2022/06/17 11:13:01;;;;;;;1.23;0.88;;;28.00;50.00;;;;;;4978596;28;20030;-80
2022/06/17 11:15:32;;;;;;;1.83;0.90;;;28.00;50.10;;;;;;4994692;28;20045;-80
2022/06/17 11:18:04;;;;;;;0.80;0.70;;;28.10;49.90;;;;;;4978823;28;21335;-79
2022/06/17 11:20:32;;;;;;;0.55;0.55;;;28.20;49.70;;;;;;4977648;28;20141;-80
2022/06/17 11:23:03;;;;;;;0.73;0.73;;;28.20;49.60;;;;;;4991751;28;20065;-80
2022/06/17 11:25:37;;;;;;;0.70;0.70;;;28.30;49.50;;;;;;5010442;28;20560;-80
2022/06/17 11:28:24;;;;;;;1.88;0.80;;;28.30;49.30;;;;;;5012442;28;20041;-82
2022/06/17 11:31:07;;;;;;;1.33;0.80;;;28.40;49.00;;;;;;5012073;28;20042;-81
2022/06/17 11:33:40;;;;;;;0.90;0.90;;;28.40;49.00;;;;;;5015255;28;20065;-81
2022/06/17 11:36:17;;;;;;;0.88;0.80;;;28.50;48.80;;;;;;5014736;28;20517;-81
2022/06/17 11:38:43;;;;;;;1.00;0.70;;;28.50;49.00;;;;;;4996062;28;20049;-80
2022/06/17 11:41:17;;;;;;;0.80;0.80;;;28.70;48.90;;;;;;4998501;28;20045;-81
2022/06/17 11:43:45;;;;;;;0.75;0.70;;;28.70;48.60;;;;;;4979452;28;20049;-82
2022/06/17 11:46:16;;;;;;;0.70;0.70;;;28.70;48.70;;;;;;4995449;28;20482;-81
2022/06/17 11:48:55;;;;;;;2.15;0.80;;;28.80;48.70;;;;;;4996603;28;20060;-81
2022/06/17 11:51:33;;;;;;;1.00;0.90;;;28.80;48.40;;;;;;4996282;28;20041;-81
2022/06/17 11:54:06;;;;;;;1.45;0.68;;;28.70;48.20;;;;;;4981247;28;20520;-81
2022/06/17 11:56:35;;;;;;;2.33;1.20;;;28.60;48.20;;;;;;4980981;28;20099;-81
2022/06/17 11:59:07;;;;;;;0.97;0.90;;;28.60;48.30;;;;;;4996263;28;20117;-80
2022/06/17 12:01:34;;;;;;;1.35;0.73;;;28.60;48.40;;;;;;5013907;28;20115;-81
2022/06/17 12:04:00;;;;;;;0.80;0.80;;;28.60;48.40;;;;;;4997226;28;20030;-81
2022/06/17 12:06:46;;;;;;;1.10;1.00;;;28.60;48.20;;;;;;4998623;28;20093;-79
2022/06/17 12:09:26;;;;;;;0.82;0.82;;;28.60;48.00;;;;;;5009608;28;20050;-80
2022/06/17 12:11:56;;;;;;;0.85;0.70;;;28.60;48.10;;;;;;5017559;28;20038;-82
2022/06/17 12:14:59;;;;;;;4.03;1.00;;;28.70;48.10;;;;;;5015143;28;20093;-81
2022/06/17 12:17:25;;;;;;;0.93;0.90;;;28.70;47.90;;;;;;4976735;28;20062;-82
2022/06/17 12:19:51;;;;;;;0.80;0.75;;;28.70;48.00;;;;;;4989671;28;20089;-82
2022/06/17 12:22:27;;;;;;;1.17;0.90;;;28.60;48.10;;;;;;4995273;28;20042;-79
2022/06/17 12:25:18;;;;;;;1.23;0.98;;;28.60;48.00;;;;;;4999411;28;20529;-82
2022/06/17 12:27:57;;;;;;;0.70;0.70;;;28.70;47.90;;;;;;4979085;28;20645;-81
2022/06/17 12:30:45;;;;;;;2.60;1.00;;;28.80;47.90;;;;;;4993368;28;20053;-83
2022/06/17 12:33:26;;;;;;;0.75;0.75;;;28.90;47.80;;;;;;4994362;28;20152;-81
2022/06/17 12:36:11;;;;;;;0.77;0.75;;;29.00;47.70;;;;;;4995452;28;20133;-79
2022/06/17 12:39:36;;;;;;;0.90;0.77;;;29.00;47.60;;;;;;4996551;28;20049;-80
2022/06/17 12:42:20;;;;;;;0.80;0.80;;;29.10;47.60;;;;;;5011473;28;20536;-78
2022/06/17 12:45:03;;;;;;;0.80;0.80;;;29.00;47.70;;;;;;5012998;28;20031;-78
2022/06/17 12:48:00;;;;;;;0.60;0.60;;;29.00;47.60;;;;;;5032822;28;20046;-79
2022/06/17 12:53:57;;;;;;;0.88;0.73;;;28.90;47.60;;;;;;5020960;28;20069;-82
2022/06/17 12:56:35;;;;;;;0.88;0.70;;;28.90;47.70;;;;;;4997123;28;20068;-80
2022/06/17 12:59:16;;;;;;;0.80;0.80;;;28.90;47.50;;;;;;5015038;28;20058;-81
2022/06/17 13:01:54;;;;;;;1.13;1.00;;;28.80;47.50;;;;;;5015625;28;20072;-80
2022/06/17 13:04:41;;;;;;;0.88;0.88;;;28.80;47.40;;;;;;5031965;28;20102;-80
2022/06/17 13:07:35;;;;;;;1.33;1.20;;;28.70;47.30;;;;;;5025603;28;20041;-82
2022/06/17 13:13:24;;;;;;;0.75;0.70;;;28.70;47.10;;;;;;5018772;28;20085;-83
2022/06/17 13:16:01;;;;;;;1.65;1.23;;;28.80;47.30;;;;;;4956088;28;20077;-79
2022/06/17 13:18:39;;;;;;;1.25;1.10;;;28.90;47.00;;;;;;4973430;28;20513;-80
2022/06/17 13:21:10;;;;;;;2.65;1.00;;;28.80;47.00;;;;;;4966981;28;20102;-80
2022/06/17 13:23:50;;;;;;;0.70;0.70;;;28.70;47.00;;;;;;4976412;28;20038;-83
2022/06/17 13:26:27;;;;;;;0.63;0.63;;;28.80;47.10;;;;;;4977800;28;20031;-81
2022/06/17 13:29:02;;;;;;;1.08;0.98;;;28.90;47.10;;;;;;4956443;28;20455;-83
2022/06/17 13:31:40;;;;;;;0.88;0.85;;;29.00;47.00;;;;;;4979939;28;20038;-81
2022/06/17 13:34:57;;;;;;;0.75;0.75;;;29.00;46.80;;;;;;4935308;28;20158;-85
2022/06/17 13:42:00;;;;;;;1.02;0.90;;;29.10;46.90;;;;;;4932058;29;20067;-85
2022/06/17 13:44:44;;;;;;;0.80;0.80;;;29.00;46.70;;;;;;4920520;29;20043;-80
2022/06/17 13:47:35;;;;;;;0.60;0.60;;;29.00;46.90;;;;;;4939845;29;20048;-81
2022/06/17 13:50:25;;;;;;;1.58;0.95;;;28.90;46.90;;;;;;4939364;29;20048;-80
2022/06/17 13:53:10;;;;;;;;;;;28.80;46.90;;;;;;4942527;29;20130;-78
2022/06/17 13:55:47;;;;;;;0.70;0.70;;;28.70;47.50;;;;;;4940449;29;20000;-79
2022/06/17 13:58:53;;;;;;;0.88;0.60;;;28.80;47.00;;;;;;4924757;29;20048;-80
2022/06/17 14:01:42;;;;;;;0.88;0.68;;;28.90;47.10;;;;;;4931370;29;20050;-80
2022/06/17 14:04:15;;;;;;;0.68;0.57;;;28.80;47.00;;;;;;4946172;29;20050;-80
2022/06/17 14:07:01;;;;;;;0.70;0.70;;;28.90;47.00;;;;;;4944990;29;20043;-80
2022/06/17 14:09:39;;;;;;;0.77;0.70;;;28.90;46.90;;;;;;5013495;28;20038;-79
2022/06/17 14:12:26;;;;;;;0.50;0.50;;;28.90;46.90;;;;;;5004788;28;20039;-80
2022/06/17 14:15:02;;;;;;;1.10;0.65;;;28.90;46.90;;;;;;5025027;28;20092;-79
2022/06/17 14:17:29;;;;;;;0.65;0.65;;;28.90;46.90;;;;;;5013123;28;20054;-79